Time;durP1;ratioP1;P1;durP2;ratioP2;P2;SDS_P1;SDS_P2;PMS_P1;PMS_P2;Temp;Humidity;BMP_temperature;BMP_pressure;BME280_temperature;BME280_humidity;BME280_pressure;Samples;Min_cycle;Max_cycle;Signal;HPM_P1;HPM_P2
2021/11/26 00:02:22;;;;;;;33.37;15.57;;;;;;;;;;5051489;28;20564;-64
2021/11/26 00:04:48;;;;;;;32.80;14.77;;;;;;;;;;5052837;28;20457;-64
2021/11/26 00:07:15;;;;;;;29.50;16.40;;;;;;;;;;5053095;28;20789;-64
2021/11/26 00:09:41;;;;;;;31.67;14.40;;;;;;;;;;5053707;28;20919;-64
2021/11/26 00:12:07;;;;;;;32.30;15.73;;;;;;;;;;5049657;28;20478;-64
2021/11/26 00:14:35;;;;;;;34.40;15.97;;;;;;;;;;5054121;28;20426;-65
2021/11/26 00:17:03;;;;;;;31.70;16.27;;;;;;;;;;5033820;28;20468;-63
2021/11/26 00:19:29;;;;;;;30.57;16.27;;;;;;;;;;5053299;28;20425;-64
2021/11/26 00:21:57;;;;;;;34.07;15.67;;;;;;;;;;5050892;28;20465;-64
2021/11/26 00:24:23;;;;;;;29.60;15.17;;;;;;;;;;5037863;28;20455;-65
2021/11/26 00:26:49;;;;;;;42.10;18.17;;;;;;;;;;5043658;28;20438;-66
2021/11/26 00:29:15;;;;;;;33.83;16.60;;;;;;;;;;5047743;28;20528;-65
2021/11/26 00:31:42;;;;;;;30.93;15.83;;;;;;;;;;5053520;28;20803;-65
2021/11/26 00:34:09;;;;;;;36.00;18.23;;;;;;;;;;5042962;28;20430;-64
2021/11/26 00:36:35;;;;;;;30.90;15.90;;;;;;;;;;5032064;28;20924;-65
2021/11/26 00:39:01;;;;;;;34.27;16.30;;;;;;;;;;5037687;28;20426;-65
2021/11/26 00:41:28;;;;;;;28.07;14.27;;;;;;;;;;5053039;28;20453;-65
2021/11/26 00:43:54;;;;;;;27.50;15.47;;;;;;;;;;5050628;28;20421;-65
2021/11/26 00:46:20;;;;;;;33.13;16.27;;;;;;;;;;5053684;28;20911;-64
2021/11/26 00:48:46;;;;;;;32.90;16.40;;;;;;;;;;5054277;28;20436;-64
2021/11/26 00:51:13;;;;;;;31.20;16.77;;;;;;;;;;5038374;28;20416;-64
2021/11/26 00:53:39;;;;;;;27.77;14.17;;;;;;;;;;5053866;28;20410;-65
2021/11/26 00:56:05;;;;;;;31.47;15.63;;;;;;;;;;5054196;28;20425;-65
2021/11/26 00:58:31;;;;;;;28.63;14.67;;;;;;;;;;5054119;28;20413;-66
2021/11/26 01:00:58;;;;;;;28.47;13.07;;;;;;;;;;5054365;28;20493;-65
2021/11/26 01:03:24;;;;;;;31.70;15.40;;;;;;;;;;5056709;28;20461;-64
2021/11/26 01:05:50;;;;;;;37.20;16.23;;;;;;;;;;5055367;28;20493;-63
2021/11/26 01:08:17;;;;;;;31.30;14.70;;;;;;;;;;5054594;28;20429;-64
2021/11/26 01:10:43;;;;;;;34.57;15.70;;;;;;;;;;5056052;28;20417;-64
2021/11/26 01:13:10;;;;;;;33.77;15.10;;;;;;;;;;5044246;28;20450;-64
2021/11/26 01:15:36;;;;;;;32.43;15.43;;;;;;;;;;5046602;28;20488;-65
2021/11/26 01:18:03;;;;;;;31.47;15.17;;;;;;;;;;5043586;28;20434;-63
2021/11/26 01:20:31;;;;;;;43.40;18.10;;;;;;;;;;5054769;28;20453;-64
2021/11/26 01:22:57;;;;;;;34.10;16.57;;;;;;;;;;5053356;28;20500;-65
2021/11/26 01:25:24;;;;;;;37.20;19.10;;;;;;;;;;5054708;28;20394;-64
2021/11/26 01:27:50;;;;;;;35.67;17.73;;;;;;;;;;5052231;28;20410;-66
2021/11/26 01:30:27;;;;;;;36.27;16.83;;;;;;;;;;5036496;28;20490;-64
2021/11/26 01:32:54;;;;;;;35.33;17.13;;;;;;;;;;5045864;28;20506;-66
2021/11/26 01:35:20;;;;;;;34.67;16.97;;;;;;;;;;5055924;28;20420;-63
2021/11/26 01:37:46;;;;;;;34.10;16.37;;;;;;;;;;5054305;28;20412;-64
2021/11/26 01:40:13;;;;;;;33.03;16.57;;;;;;;;;;5040477;28;20550;-64
2021/11/26 01:42:39;;;;;;;34.00;15.37;;;;;;;;;;5066024;28;20567;-64
2021/11/26 01:45:06;;;;;;;32.67;15.50;;;;;;;;;;5055343;28;20923;-64
2021/11/26 01:47:32;;;;;;;32.40;16.83;;;;;;;;;;5053220;28;20871;-66
2021/11/26 01:49:58;;;;;;;35.20;16.13;;;;;;;;;;5052063;28;20450;-66
2021/11/26 01:52:24;;;;;;;36.77;18.43;;;;;;;;;;5053654;28;20806;-64
2021/11/26 01:54:50;;;;;;;32.30;14.67;;;;;;;;;;5055346;28;20410;-65
2021/11/26 01:57:17;;;;;;;29.20;14.80;;;;;;;;;;5052526;28;20426;-65
2021/11/26 01:59:43;;;;;;;31.77;14.93;;;;;;;;;;5053025;28;20403;-66
2021/11/26 02:02:09;;;;;;;40.20;17.90;;;;;;;;;;5052488;28;20475;-66
2021/11/26 02:04:36;;;;;;;32.27;14.87;;;;;;;;;;5053990;28;20414;-65
2021/11/26 02:07:02;;;;;;;30.77;15.97;;;;;;;;;;5053025;28;20512;-66
2021/11/26 02:09:28;;;;;;;36.53;16.40;;;;;;;;;;5053867;28;20888;-63
2021/11/26 02:11:54;;;;;;;33.60;16.77;;;;;;;;;;5052805;28;20815;-66
2021/11/26 02:14:20;;;;;;;39.63;18.10;;;;;;;;;;5073750;28;20420;-65
2021/11/26 02:16:48;;;;;;;38.57;17.70;;;;;;;;;;5061587;28;20437;-65
2021/11/26 02:19:14;;;;;;;33.27;15.53;;;;;;;;;;5053563;28;20405;-64
2021/11/26 02:21:41;;;;;;;28.97;16.10;;;;;;;;;;5052381;28;20461;-65
2021/11/26 02:24:07;;;;;;;32.00;14.57;;;;;;;;;;5053543;28;20437;-64
2021/11/26 02:26:37;;;;;;;32.53;15.97;;;;;;;;;;5049248;28;20430;-66
2021/11/26 02:29:04;;;;;;;33.00;15.60;;;;;;;;;;5039794;28;20415;-65
2021/11/26 02:31:31;;;;;;;31.33;15.70;;;;;;;;;;5051945;28;20473;-66
2021/11/26 02:33:57;;;;;;;26.67;14.93;;;;;;;;;;5054473;28;20849;-64
2021/11/26 02:36:23;;;;;;;30.63;14.13;;;;;;;;;;5052467;28;20402;-66
2021/11/26 02:38:49;;;;;;;33.50;16.03;;;;;;;;;;5054163;28;20416;-65
2021/11/26 02:41:15;;;;;;;26.60;13.50;;;;;;;;;;5052920;28;20457;-64
2021/11/26 02:43:41;;;;;;;36.63;14.90;;;;;;;;;;5051436;28;20519;-65
2021/11/26 02:46:07;;;;;;;26.60;13.10;;;;;;;;;;5044112;28;20772;-67
2021/11/26 02:48:33;;;;;;;28.70;13.70;;;;;;;;;;5053288;28;20495;-65
2021/11/26 02:50:59;;;;;;;31.97;15.50;;;;;;;;;;5051754;28;20418;-65
2021/11/26 02:53:26;;;;;;;38.80;15.97;;;;;;;;;;5051842;28;20449;-65
2021/11/26 02:55:52;;;;;;;27.77;15.17;;;;;;;;;;5050935;28;20453;-66
2021/11/26 02:58:18;;;;;;;31.00;16.83;;;;;;;;;;5066501;28;20455;-64
2021/11/26 03:00:46;;;;;;;38.90;17.07;;;;;;;;;;5054570;28;20508;-64
2021/11/26 03:03:12;;;;;;;32.67;15.80;;;;;;;;;;5052053;28;20481;-65
2021/11/26 03:05:38;;;;;;;36.47;17.57;;;;;;;;;;5053852;28;20468;-65
2021/11/26 03:08:05;;;;;;;32.77;16.00;;;;;;;;;;5051665;28;20480;-66
2021/11/26 03:10:31;;;;;;;40.47;19.37;;;;;;;;;;5053731;28;20449;-64
2021/11/26 03:13:00;;;;;;;33.27;16.93;;;;;;;;;;5055345;28;20470;-64
2021/11/26 03:15:26;;;;;;;34.43;16.67;;;;;;;;;;5051273;28;20453;-65
2021/11/26 03:17:54;;;;;;;31.17;14.97;;;;;;;;;;5052369;28;20417;-64
2021/11/26 03:20:21;;;;;;;36.53;16.50;;;;;;;;;;5033860;28;20491;-63
2021/11/26 03:22:47;;;;;;;38.80;16.60;;;;;;;;;;5052339;28;20421;-62
2021/11/26 03:25:13;;;;;;;35.57;17.97;;;;;;;;;;5051806;28;20787;-63
2021/11/26 03:27:40;;;;;;;40.00;18.10;;;;;;;;;;5035630;28;20523;-63
2021/11/26 03:30:07;;;;;;;36.83;17.03;;;;;;;;;;5032666;28;20399;-62
2021/11/26 03:32:33;;;;;;;45.80;18.00;;;;;;;;;;5032531;28;20419;-65
2021/11/26 03:34:59;;;;;;;40.77;17.97;;;;;;;;;;5049922;28;20425;-65
2021/11/26 03:37:25;;;;;;;44.63;18.93;;;;;;;;;;5051388;28;20445;-64
2021/11/26 03:39:51;;;;;;;48.30;20.47;;;;;;;;;;5060143;28;20768;-66
2021/11/26 03:42:17;;;;;;;47.07;19.00;;;;;;;;;;5052425;28;20539;-64
2021/11/26 03:44:43;;;;;;;40.63;18.13;;;;;;;;;;5052305;28;20853;-64
2021/11/26 03:47:09;;;;;;;45.27;20.13;;;;;;;;;;5037397;28;20477;-64
2021/11/26 03:49:35;;;;;;;41.30;18.00;;;;;;;;;;5032422;28;20413;-65
2021/11/26 03:52:01;;;;;;;44.57;19.60;;;;;;;;;;5031942;28;20449;-64
2021/11/26 03:54:27;;;;;;;39.13;19.33;;;;;;;;;;5035655;28;20465;-66
2021/11/26 03:56:54;;;;;;;34.97;17.50;;;;;;;;;;5050581;28;20438;-65
2021/11/26 03:59:20;;;;;;;46.37;21.13;;;;;;;;;;5033482;28;20503;-67
2021/11/26 04:01:46;;;;;;;38.00;18.43;;;;;;;;;;5051413;28;20473;-65
2021/11/26 04:04:12;;;;;;;45.47;19.30;;;;;;;;;;5051192;28;20531;-65
2021/11/26 04:06:38;;;;;;;42.90;20.83;;;;;;;;;;5050104;28;20969;-64
2021/11/26 04:09:04;;;;;;;44.53;17.30;;;;;;;;;;5063119;28;20980;-65
2021/11/26 04:11:31;;;;;;;41.37;19.23;;;;;;;;;;5072414;28;20500;-65
2021/11/26 04:13:57;;;;;;;40.23;19.60;;;;;;;;;;5052078;28;20434;-65
2021/11/26 04:16:23;;;;;;;53.20;20.50;;;;;;;;;;5051877;28;20865;-64
2021/11/26 04:18:49;;;;;;;42.13;20.00;;;;;;;;;;5046372;28;20436;-64
2021/11/26 04:21:15;;;;;;;58.53;20.23;;;;;;;;;;5055485;28;20452;-64
2021/11/26 04:23:43;;;;;;;57.63;19.37;;;;;;;;;;5055293;28;20429;-64
2021/11/26 04:26:09;;;;;;;62.37;21.73;;;;;;;;;;5054977;28;20467;-64
2021/11/26 04:28:35;;;;;;;51.90;20.43;;;;;;;;;;5054655;28;20488;-64
2021/11/26 04:31:01;;;;;;;47.27;19.40;;;;;;;;;;5056500;28;20414;-64
2021/11/26 04:33:28;;;;;;;52.03;20.83;;;;;;;;;;5055159;28;20434;-64
2021/11/26 04:35:54;;;;;;;41.67;19.40;;;;;;;;;;5055707;28;20771;-64
2021/11/26 04:38:21;;;;;;;52.03;20.10;;;;;;;;;;5055250;28;20455;-64
2021/11/26 04:40:47;;;;;;;53.63;18.90;;;;;;;;;;5051630;28;20453;-64
2021/11/26 04:43:13;;;;;;;45.20;19.47;;;;;;;;;;5055498;28;20846;-64
2021/11/26 04:45:40;;;;;;;53.50;21.50;;;;;;;;;;5051446;28;20433;-64
2021/11/26 04:48:06;;;;;;;44.10;20.33;;;;;;;;;;5044045;28;20458;-64
2021/11/26 04:50:32;;;;;;;57.63;22.10;;;;;;;;;;5049997;28;20422;-65
2021/11/26 04:52:58;;;;;;;55.67;19.47;;;;;;;;;;5053931;28;20450;-64
2021/11/26 04:55:25;;;;;;;47.37;20.30;;;;;;;;;;5053995;28;20515;-64
2021/11/26 04:57:51;;;;;;;65.10;24.33;;;;;;;;;;5057451;28;20426;-63
2021/11/26 05:00:19;;;;;;;50.03;21.63;;;;;;;;;;5055433;28;20432;-63
2021/11/26 05:02:45;;;;;;;53.07;20.33;;;;;;;;;;5049103;28;21029;-64
2021/11/26 05:05:11;;;;;;;53.13;19.37;;;;;;;;;;5055669;28;20762;-64
2021/11/26 05:07:37;;;;;;;48.60;18.70;;;;;;;;;;5055754;28;20429;-64
2021/11/26 05:10:04;;;;;;;46.00;18.57;;;;;;;;;;5032526;28;20422;-64
2021/11/26 05:13:13;;;;;;;61.83;22.07;;;;;;;;;;5051557;28;20827;-64
2021/11/26 05:15:26;;;;;;;54.17;21.10;;;;;;;;;;5028058;28;20534;-64
2021/11/26 05:17:56;;;;;;;54.73;21.53;;;;;;;;;;5035561;28;20380;-64
2021/11/26 05:20:22;;;;;;;50.40;21.90;;;;;;;;;;5056162;28;20457;-64
2021/11/26 05:22:49;;;;;;;57.70;22.90;;;;;;;;;;5054776;28;20426;-65
2021/11/26 05:25:15;;;;;;;60.77;22.60;;;;;;;;;;5049435;28;20422;-65
2021/11/26 05:27:41;;;;;;;65.03;21.90;;;;;;;;;;5055290;28;20394;-65
2021/11/26 05:30:08;;;;;;;63.70;21.40;;;;;;;;;;5055648;28;20425;-65
2021/11/26 05:32:34;;;;;;;55.20;24.27;;;;;;;;;;5054522;28;20441;-65
2021/11/26 05:35:00;;;;;;;64.47;23.27;;;;;;;;;;5052674;28;20433;-64
2021/11/26 05:37:26;;;;;;;55.33;21.37;;;;;;;;;;5054941;28;20422;-65
2021/11/26 05:39:52;;;;;;;41.50;19.87;;;;;;;;;;5054777;28;20422;-65
2021/11/26 05:42:18;;;;;;;44.20;18.43;;;;;;;;;;5054645;28;20472;-65
2021/11/26 05:44:44;;;;;;;52.10;18.70;;;;;;;;;;5047668;28;20423;-65
2021/11/26 05:47:10;;;;;;;34.87;15.63;;;;;;;;;;5048567;28;20536;-65
2021/11/26 05:49:36;;;;;;;45.27;18.43;;;;;;;;;;5054865;28;20422;-64
2021/11/26 05:52:03;;;;;;;41.93;17.40;;;;;;;;;;5053068;28;20546;-64
2021/11/26 05:54:29;;;;;;;44.50;16.07;;;;;;;;;;5054796;28;20728;-66
2021/11/26 05:56:55;;;;;;;46.83;20.87;;;;;;;;;;5045845;28;20929;-64
2021/11/26 05:59:21;;;;;;;50.03;18.40;;;;;;;;;;5034775;28;20465;-65
2021/11/26 06:01:47;;;;;;;38.00;17.13;;;;;;;;;;5034111;28;20462;-63
2021/11/26 06:04:13;;;;;;;43.50;18.23;;;;;;;;;;5055439;28;20780;-65
2021/11/26 06:06:39;;;;;;;48.20;17.33;;;;;;;;;;5053436;28;20471;-64
2021/11/26 06:09:05;;;;;;;32.63;14.70;;;;;;;;;;5030336;28;20427;-64
2021/11/26 06:11:31;;;;;;;42.40;14.93;;;;;;;;;;5046470;28;20437;-64
2021/11/26 06:13:57;;;;;;;43.23;16.87;;;;;;;;;;5034350;28;20437;-64
2021/11/26 06:16:23;;;;;;;38.63;16.00;;;;;;;;;;5050384;28;20434;-66
2021/11/26 06:18:49;;;;;;;42.10;15.17;;;;;;;;;;5053242;28;20421;-65
2021/11/26 06:21:15;;;;;;;33.57;15.63;;;;;;;;;;5055263;28;20461;-65
2021/11/26 06:23:41;;;;;;;40.10;15.77;;;;;;;;;;5036273;28;20522;-63
2021/11/26 06:26:08;;;;;;;38.47;16.10;;;;;;;;;;5054275;28;20413;-64
2021/11/26 06:28:34;;;;;;;40.83;18.50;;;;;;;;;;5051958;28;20433;-64
2021/11/26 06:31:00;;;;;;;38.83;16.67;;;;;;;;;;5053949;28;20496;-64
2021/11/26 06:33:26;;;;;;;31.90;15.43;;;;;;;;;;5048074;28;20450;-64
2021/11/26 06:35:52;;;;;;;33.43;15.87;;;;;;;;;;5034622;28;20801;-65
2021/11/26 06:38:18;;;;;;;34.17;14.70;;;;;;;;;;5037308;28;20428;-64
2021/11/26 06:40:44;;;;;;;33.33;16.77;;;;;;;;;;5052711;28;20462;-65
2021/11/26 06:43:10;;;;;;;34.90;15.47;;;;;;;;;;5054483;28;21010;-65
2021/11/26 06:45:36;;;;;;;37.43;18.10;;;;;;;;;;5053045;28;20433;-65
2021/11/26 06:48:02;;;;;;;31.93;14.83;;;;;;;;;;5054287;28;20464;-65
2021/11/26 06:50:29;;;;;;;40.03;18.40;;;;;;;;;;5050965;28;20521;-65
2021/11/26 06:52:55;;;;;;;36.27;16.80;;;;;;;;;;5053869;28;20445;-64
2021/11/26 06:55:22;;;;;;;32.57;14.40;;;;;;;;;;5054066;28;20425;-70
2021/11/26 06:57:48;;;;;;;37.97;17.70;;;;;;;;;;5053964;28;20417;-63
2021/11/26 07:00:15;;;;;;;30.03;13.50;;;;;;;;;;5050987;28;20426;-64
2021/11/26 07:02:42;;;;;;;37.67;15.73;;;;;;;;;;5052835;28;21050;-63
2021/11/26 07:05:08;;;;;;;38.03;15.33;;;;;;;;;;5053155;28;20426;-63
2021/11/26 07:07:34;;;;;;;30.40;13.30;;;;;;;;;;5053825;28;20402;-64
2021/11/26 07:10:00;;;;;;;27.90;14.03;;;;;;;;;;5053916;28;20422;-65
2021/11/26 07:12:27;;;;;;;36.67;15.43;;;;;;;;;;5051691;28;20476;-64
2021/11/26 07:14:53;;;;;;;31.20;13.90;;;;;;;;;;5052051;28;20474;-64
2021/11/26 07:17:19;;;;;;;42.07;17.00;;;;;;;;;;5066827;28;20430;-64
2021/11/26 07:19:49;;;;;;;31.17;14.70;;;;;;;;;;5052792;28;20492;-64
2021/11/26 07:22:16;;;;;;;33.90;14.30;;;;;;;;;;5051693;28;20480;-65
2021/11/26 07:24:44;;;;;;;29.67;13.47;;;;;;;;;;5051580;28;20438;-64
2021/11/26 07:27:10;;;;;;;29.17;14.10;;;;;;;;;;5044105;28;20792;-64
2021/11/26 07:29:37;;;;;;;27.43;12.73;;;;;;;;;;5052390;28;20425;-64
2021/11/26 07:32:03;;;;;;;31.87;14.23;;;;;;;;;;5050026;28;20453;-64
2021/11/26 07:34:29;;;;;;;35.13;15.90;;;;;;;;;;5054103;28;20958;-64
2021/11/26 07:36:55;;;;;;;26.97;13.10;;;;;;;;;;5050674;28;21214;-64
2021/11/26 07:39:22;;;;;;;32.57;14.13;;;;;;;;;;5047344;28;20406;-65
2021/11/26 07:41:49;;;;;;;30.53;13.27;;;;;;;;;;5057178;28;20473;-66
2021/11/26 07:44:15;;;;;;;33.63;13.33;;;;;;;;;;5051399;28;20418;-64
2021/11/26 07:46:41;;;;;;;28.27;12.40;;;;;;;;;;5050020;28;20822;-65
2021/11/26 07:49:07;;;;;;;30.17;15.27;;;;;;;;;;5050958;28;20434;-64
2021/11/26 07:51:33;;;;;;;26.87;12.60;;;;;;;;;;5048232;28;20492;-66
2021/11/26 07:53:59;;;;;;;30.90;14.50;;;;;;;;;;5051447;28;20507;-65
2021/11/26 07:56:25;;;;;;;29.70;14.27;;;;;;;;;;5037841;28;20577;-66
2021/11/26 07:58:51;;;;;;;31.13;15.20;;;;;;;;;;5054080;28;20438;-65
2021/11/26 08:01:18;;;;;;;30.07;13.90;;;;;;;;;;5056060;28;20974;-65
2021/11/26 08:03:44;;;;;;;33.47;13.40;;;;;;;;;;5053301;28;20433;-64
2021/11/26 08:06:10;;;;;;;31.70;12.90;;;;;;;;;;5056349;28;20483;-65
2021/11/26 08:08:36;;;;;;;30.47;13.93;;;;;;;;;;5056341;28;20418;-65
2021/11/26 08:11:02;;;;;;;30.93;15.00;;;;;;;;;;5057881;28;20842;-64
2021/11/26 08:13:28;;;;;;;27.80;14.23;;;;;;;;;;5055041;28;20430;-63
2021/11/26 08:15:54;;;;;;;30.80;14.73;;;;;;;;;;5050790;28;20441;-65
2021/11/26 08:18:21;;;;;;;32.60;14.50;;;;;;;;;;5051111;28;20425;-63
2021/11/26 08:20:47;;;;;;;35.77;13.73;;;;;;;;;;5054714;28;20519;-65
2021/11/26 08:23:13;;;;;;;29.97;14.10;;;;;;;;;;5054958;28;20544;-64
2021/11/26 08:25:39;;;;;;;32.77;15.47;;;;;;;;;;5046724;28;20422;-63
2021/11/26 08:28:06;;;;;;;30.57;14.03;;;;;;;;;;5040849;28;20425;-65
2021/11/26 08:30:32;;;;;;;36.87;17.33;;;;;;;;;;5052032;28;20429;-65
2021/11/26 08:32:58;;;;;;;31.80;13.47;;;;;;;;;;5046143;28;20493;-67
2021/11/26 08:35:25;;;;;;;37.97;16.00;;;;;;;;;;5040141;28;20891;-66
2021/11/26 08:37:52;;;;;;;29.60;15.17;;;;;;;;;;5052018;28;20482;-66
2021/11/26 08:40:18;;;;;;;38.80;15.77;;;;;;;;;;5047299;28;20482;-66
2021/11/26 08:42:44;;;;;;;34.17;15.37;;;;;;;;;;5049562;28;20507;-65
2021/11/26 08:45:12;;;;;;;39.40;15.23;;;;;;;;;;5053253;28;20416;-69
2021/11/26 08:47:38;;;;;;;44.73;16.63;;;;;;;;;;5048515;28;20768;-65
2021/11/26 08:50:05;;;;;;;39.87;17.10;;;;;;;;;;5051834;28;20932;-66
2021/11/26 08:52:32;;;;;;;34.17;15.60;;;;;;;;;;5051407;28;20442;-66
2021/11/26 08:54:58;;;;;;;45.37;17.67;;;;;;;;;;5048815;28;20433;-70
2021/11/26 08:57:28;;;;;;;31.63;15.43;;;;;;;;;;5036756;28;20436;-70
2021/11/26 08:59:54;;;;;;;37.83;16.57;;;;;;;;;;5055077;28;20402;-69
2021/11/26 09:02:21;;;;;;;39.67;16.70;;;;;;;;;;5058130;28;20843;-68
2021/11/26 09:04:47;;;;;;;36.40;16.70;;;;;;;;;;5052803;28;20458;-66
2021/11/26 09:07:13;;;;;;;30.47;15.53;;;;;;;;;;5031128;28;20417;-66
2021/11/26 09:09:39;;;;;;;36.27;15.43;;;;;;;;;;5054509;28;20414;-72
2021/11/26 09:12:06;;;;;;;38.90;17.20;;;;;;;;;;5036598;28;20438;-68
2021/11/26 09:14:32;;;;;;;43.00;17.87;;;;;;;;;;5055984;28;20955;-70
2021/11/26 09:16:59;;;;;;;44.90;17.43;;;;;;;;;;5053412;28;20425;-72
2021/11/26 09:19:25;;;;;;;44.90;17.87;;;;;;;;;;5046780;28;20525;-73
2021/11/26 09:21:51;;;;;;;35.20;17.57;;;;;;;;;;5053000;28;20511;-71
2021/11/26 09:24:17;;;;;;;43.80;18.63;;;;;;;;;;5048187;28;20422;-72
2021/11/26 09:26:43;;;;;;;44.67;18.73;;;;;;;;;;5052646;28;20479;-70
2021/11/26 09:29:09;;;;;;;46.43;19.50;;;;;;;;;;5050346;28;20524;-70
2021/11/26 09:31:35;;;;;;;49.00;19.80;;;;;;;;;;5036789;28;20446;-72
2021/11/26 09:34:04;;;;;;;46.77;19.07;;;;;;;;;;5039106;28;20518;-71
2021/11/26 09:36:34;;;;;;;44.37;17.63;;;;;;;;;;5052965;28;20418;-71
2021/11/26 09:39:00;;;;;;;36.90;17.00;;;;;;;;;;5049692;28;20517;-71
2021/11/26 09:41:26;;;;;;;36.37;17.10;;;;;;;;;;5052551;28;20523;-72
2021/11/26 09:43:52;;;;;;;32.60;15.47;;;;;;;;;;5052169;28;20422;-70
2021/11/26 09:46:24;;;;;;;41.87;19.10;;;;;;;;;;5044929;28;20411;-70
2021/11/26 09:48:50;;;;;;;40.37;16.83;;;;;;;;;;5045157;28;20528;-71
2021/11/26 09:51:16;;;;;;;39.60;16.47;;;;;;;;;;5031565;28;20886;-71
2021/11/26 09:53:42;;;;;;;40.73;14.53;;;;;;;;;;5050251;28;20475;-70
2021/11/26 09:56:10;;;;;;;33.27;15.33;;;;;;;;;;5048298;28;20939;-65
2021/11/26 09:58:37;;;;;;;31.30;14.60;;;;;;;;;;5046784;28;20430;-65
2021/11/26 10:01:07;;;;;;;30.37;15.07;;;;;;;;;;5046149;28;20531;-65
2021/11/26 10:03:44;;;;;;;27.60;13.83;;;;;;;;;;5050343;28;20556;-66
2021/11/26 10:06:20;;;;;;;29.77;13.87;;;;;;;;;;5049192;28;20410;-68
2021/11/26 10:08:56;;;;;;;35.87;14.87;;;;;;;;;;5051883;28;20457;-68
2021/11/26 10:11:29;;;;;;;34.50;14.70;;;;;;;;;;5050759;28;20438;-70
2021/11/26 10:13:55;;;;;;;30.03;13.60;;;;;;;;;;5047126;28;20425;-70
2021/11/26 10:16:22;;;;;;;30.20;15.50;;;;;;;;;;5049850;28;20964;-70
2021/11/26 10:18:49;;;;;;;36.40;15.37;;;;;;;;;;5050267;28;20458;-72
2021/11/26 10:21:16;;;;;;;30.23;15.73;;;;;;;;;;5031100;28;20446;-70
2021/11/26 10:23:46;;;;;;;40.60;15.90;;;;;;;;;;5047965;28;20838;-71
2021/11/26 10:26:25;;;;;;;32.20;13.90;;;;;;;;;;5053148;28;20483;-73
2021/11/26 10:28:52;;;;;;;32.90;15.20;;;;;;;;;;5044888;28;20548;-71
2021/11/26 10:31:23;;;;;;;33.93;15.63;;;;;;;;;;5050766;28;20429;-69
2021/11/26 10:33:49;;;;;;;32.37;14.90;;;;;;;;;;5048459;28;20434;-69
2021/11/26 10:36:16;;;;;;;38.57;14.90;;;;;;;;;;5054053;28;20440;-71
2021/11/26 10:38:42;;;;;;;35.10;16.00;;;;;;;;;;5034802;28;20449;-67
2021/11/26 10:41:09;;;;;;;34.63;15.93;;;;;;;;;;5044288;28;20446;-67
2021/11/26 10:49:47;;;;;;;28.10;14.00;;;;;;;;;;5051015;28;20421;-67
2021/11/26 10:59:40;;;;;;;24.37;12.80;;;;;;;;;;5047581;28;20512;-72
2021/11/26 11:02:07;;;;;;;34.30;13.10;;;;;;;;;;5052523;28;20882;-72
2021/11/26 11:04:34;;;;;;;24.73;11.77;;;;;;;;;;5034480;28;20476;-72
2021/11/26 11:07:02;;;;;;;26.90;12.20;;;;;;;;;;5052236;28;20422;-71
2021/11/26 11:09:38;;;;;;;28.77;15.03;;;;;;;;;;5042942;28;20418;-71
2021/11/26 11:12:04;;;;;;;24.13;12.50;;;;;;;;;;5043944;28;20903;-73
2021/11/26 11:14:30;;;;;;;22.10;11.53;;;;;;;;;;5039294;28;20411;-70
2021/11/26 11:16:57;;;;;;;23.73;11.13;;;;;;;;;;5050572;28;20825;-71
2021/11/26 11:19:24;;;;;;;25.40;11.67;;;;;;;;;;5051657;28;20508;-71
2021/11/26 11:21:51;;;;;;;26.03;12.83;;;;;;;;;;5051722;28;20458;-71
2021/11/26 11:24:17;;;;;;;24.47;12.43;;;;;;;;;;5041854;28;20445;-63
2021/11/26 11:26:46;;;;;;;27.27;12.60;;;;;;;;;;5048891;28;20725;-65
2021/11/26 11:29:16;;;;;;;22.83;11.57;;;;;;;;;;5052615;28;20459;-63
2021/11/26 11:31:43;;;;;;;29.47;12.37;;;;;;;;;;5057408;28;20433;-62
2021/11/26 11:34:10;;;;;;;22.07;10.93;;;;;;;;;;5041032;28;20850;-65
2021/11/26 11:36:37;;;;;;;23.20;11.27;;;;;;;;;;5038191;28;20441;-64
2021/11/26 11:39:04;;;;;;;29.67;13.33;;;;;;;;;;5047990;28;20418;-69
2021/11/26 11:41:30;;;;;;;25.70;12.17;;;;;;;;;;5052443;28;20544;-70
2021/11/26 11:43:56;;;;;;;23.00;11.27;;;;;;;;;;5051671;28;20983;-70
2021/11/26 11:46:22;;;;;;;21.87;12.13;;;;;;;;;;5034303;28;20418;-75
2021/11/26 11:48:48;;;;;;;23.97;14.70;;;;;;;;;;5048754;28;20613;-71
2021/11/26 11:51:21;;;;;;;30.30;13.13;;;;;;;;;;5051461;28;20433;-71
2021/11/26 11:53:47;;;;;;;31.13;13.83;;;;;;;;;;5051890;28;20418;-70
2021/11/26 11:56:15;;;;;;;24.63;12.50;;;;;;;;;;5049713;28;20905;-68
2021/11/26 11:58:55;;;;;;;24.23;11.77;;;;;;;;;;5044178;28;20421;-70
2021/11/26 12:01:26;;;;;;;25.83;11.97;;;;;;;;;;5046193;28;20873;-70
2021/11/26 12:03:53;;;;;;;23.30;11.40;;;;;;;;;;5050551;28;20497;-70
2021/11/26 12:06:19;;;;;;;23.50;11.03;;;;;;;;;;5046632;28;20501;-69
2021/11/26 12:08:55;;;;;;;29.20;13.10;;;;;;;;;;5029373;28;22395;-70
2021/11/26 12:11:32;;;;;;;25.27;13.30;;;;;;;;;;5045195;28;20409;-69
2021/11/26 12:14:00;;;;;;;24.47;13.20;;;;;;;;;;5047167;28;20436;-70
2021/11/26 12:16:26;;;;;;;24.40;11.83;;;;;;;;;;5051364;28;20977;-69
2021/11/26 12:18:53;;;;;;;24.83;13.10;;;;;;;;;;5045735;28;20410;-69
2021/11/26 12:21:32;;;;;;;17.73;10.27;;;;;;;;;;5049006;28;20457;-72
2021/11/26 12:24:17;;;;;;;19.00;11.33;;;;;;;;;;5044887;28;20954;-70
2021/11/26 12:26:48;;;;;;;23.93;11.03;;;;;;;;;;5040933;28;20501;-66
2021/11/26 12:29:15;;;;;;;28.20;12.50;;;;;;;;;;5046902;28;20410;-65
2021/11/26 12:31:41;;;;;;;24.20;11.80;;;;;;;;;;5046868;28;20799;-67
2021/11/26 12:34:15;;;;;;;20.80;11.50;;;;;;;;;;5049824;28;20414;-65
2021/11/26 12:36:44;;;;;;;25.33;12.20;;;;;;;;;;5044468;28;20497;-65
2021/11/26 12:39:12;;;;;;;24.50;11.70;;;;;;;;;;5048287;28;20479;-64
2021/11/26 12:41:40;;;;;;;20.27;10.73;;;;;;;;;;5053994;28;20463;-64
2021/11/26 12:44:08;;;;;;;20.13;11.00;;;;;;;;;;5055920;28;20406;-66
2021/11/26 12:46:38;;;;;;;23.17;12.30;;;;;;;;;;5055470;28;20413;-65
2021/11/26 12:49:15;;;;;;;21.53;12.53;;;;;;;;;;5055246;28;20425;-65
2021/11/26 12:51:42;;;;;;;25.57;10.90;;;;;;;;;;5055496;28;20422;-63
2021/11/26 12:54:08;;;;;;;22.17;12.40;;;;;;;;;;5054726;28;20429;-64
2021/11/26 12:56:35;;;;;;;24.63;12.30;;;;;;;;;;5054448;28;20418;-64
2021/11/26 12:59:01;;;;;;;23.07;12.10;;;;;;;;;;5037272;28;20425;-65
2021/11/26 13:01:31;;;;;;;22.87;12.57;;;;;;;;;;5054209;28;20548;-63
2021/11/26 13:03:57;;;;;;;29.33;15.27;;;;;;;;;;5055286;28;20760;-64
2021/11/26 13:06:25;;;;;;;22.80;11.63;;;;;;;;;;5054455;28;20412;-65
2021/11/26 13:09:06;;;;;;;25.87;12.10;;;;;;;;;;5054998;28;20445;-66
2021/11/26 13:11:46;;;;;;;25.13;11.40;;;;;;;;;;5053047;28;20499;-65
2021/11/26 13:14:13;;;;;;;23.03;10.80;;;;;;;;;;5054566;28;20437;-65
2021/11/26 13:16:40;;;;;;;23.37;11.77;;;;;;;;;;5054296;28;20449;-64
2021/11/26 13:19:18;;;;;;;23.23;11.93;;;;;;;;;;5054611;28;20417;-64
2021/11/26 13:21:44;;;;;;;25.27;12.20;;;;;;;;;;5053082;28;20457;-64
2021/11/26 13:24:10;;;;;;;29.60;12.70;;;;;;;;;;5055102;28;20928;-64
2021/11/26 13:26:36;;;;;;;26.80;11.67;;;;;;;;;;5054812;28;20402;-65
2021/11/26 13:29:03;;;;;;;22.90;12.20;;;;;;;;;;5053927;28;20446;-64
2021/11/26 13:31:30;;;;;;;22.30;11.13;;;;;;;;;;5054720;28;20456;-64
2021/11/26 13:33:59;;;;;;;20.87;12.17;;;;;;;;;;5054396;28;20416;-64
2021/11/26 13:36:27;;;;;;;25.57;11.70;;;;;;;;;;5051429;28;20529;-63
2021/11/26 13:38:55;;;;;;;19.50;11.57;;;;;;;;;;5054791;28;20763;-65
2021/11/26 13:41:28;;;;;;;21.77;11.67;;;;;;;;;;5054482;28;20532;-63
2021/11/26 13:43:56;;;;;;;22.97;13.57;;;;;;;;;;5053892;28;20414;-62
2021/11/26 13:46:33;;;;;;;19.43;11.27;;;;;;;;;;5053736;28;20406;-63
2021/11/26 13:49:02;;;;;;;24.80;13.00;;;;;;;;;;5054081;28;20405;-65
2021/11/26 13:51:30;;;;;;;22.80;11.10;;;;;;;;;;5054093;28;20418;-66
2021/11/26 13:54:01;;;;;;;19.50;10.40;;;;;;;;;;5051780;28;20505;-64
2021/11/26 13:56:32;;;;;;;25.10;13.13;;;;;;;;;;5053912;28;20394;-64
2021/11/26 13:59:03;;;;;;;23.70;12.30;;;;;;;;;;5053541;28;20414;-64
2021/11/26 14:01:31;;;;;;;23.30;12.20;;;;;;;;;;5053768;28;20437;-65
2021/11/26 14:03:58;;;;;;;21.00;10.57;;;;;;;;;;5053989;28;20402;-64
2021/11/26 14:06:24;;;;;;;26.20;13.33;;;;;;;;;;5053371;28;20398;-63
2021/11/26 14:08:52;;;;;;;21.53;12.00;;;;;;;;;;5053080;28;20539;-65
2021/11/26 14:11:34;;;;;;;24.00;11.37;;;;;;;;;;5053148;28;20406;-63
2021/11/26 14:14:23;;;;;;;20.27;11.40;;;;;;;;;;5049093;28;20417;-66
2021/11/26 14:16:49;;;;;;;25.00;12.67;;;;;;;;;;5037341;28;20507;-63
2021/11/26 14:19:26;;;;;;;22.30;12.20;;;;;;;;;;5053857;28;20410;-63
2021/11/26 14:21:53;;;;;;;23.37;11.03;;;;;;;;;;5053484;28;20453;-65
2021/11/26 14:24:19;;;;;;;22.90;12.97;;;;;;;;;;5053237;28;20926;-63
2021/11/26 14:26:50;;;;;;;21.43;11.57;;;;;;;;;;5053612;28;20409;-63
2021/11/26 14:29:16;;;;;;;18.17;11.33;;;;;;;;;;5053006;28;20497;-65
2021/11/26 14:31:42;;;;;;;27.13;11.40;;;;;;;;;;5050702;28;20441;-64